Time;durP1;ratioP1;P1;durP2;ratioP2;P2;SDS_P1;SDS_P2;PMS_P1;PMS_P2;Temp;Humidity;BMP_temperature;BMP_pressure;BME280_temperature;BME280_humidity;BME280_pressure;Samples;Min_cycle;Max_cycle;Signal;HPM_P1;HPM_P2
2023/09/20 00:00:50;;;;;;;;;;;17.90;99.90;;;;;;7317565;19;9256;-75
2023/09/20 00:03:19;;;;;;;;;;;18.00;99.90;;;;;;7317124;19;9403;-75
2023/09/20 00:05:49;;;;;;;;;;;18.00;99.90;;;;;;7318143;19;9247;-76
2023/09/20 00:08:18;;;;;;;;;;;18.10;99.90;;;;;;7317156;19;9625;-76
2023/09/20 00:10:48;;;;;;;;;;;17.90;99.90;;;;;;7318488;19;9471;-76
2023/09/20 00:13:17;;;;;;;;;;;17.90;99.90;;;;;;7319584;19;8948;-76
2023/09/20 00:16:09;;;;;;;;;;;17.90;99.90;;;;;;7314079;19;10938;-75
2023/09/20 00:18:39;;;;;;;;;;;17.80;99.90;;;;;;7316849;19;9191;-76
2023/09/20 00:21:10;;;;;;;;;;;17.90;99.90;;;;;;7319107;19;9218;-76
2023/09/20 00:23:39;;;;;;;;;;;18.00;99.90;;;;;;7319427;19;9319;-75
2023/09/20 00:26:08;;;;;;;;;;;17.90;99.90;;;;;;7316564;19;9465;-76
2023/09/20 00:28:38;;;;;;;;;;;17.90;99.90;;;;;;7320081;19;9876;-75
2023/09/20 00:31:09;;;;;;;;;;;17.90;99.90;;;;;;7323538;19;9613;-75
2023/09/20 00:33:39;;;;;;;;;;;17.90;99.90;;;;;;7319241;19;9235;-75
2023/09/20 00:36:08;;;;;;;;;;;17.90;99.90;;;;;;7324584;19;9302;-75
2023/09/20 00:38:58;;;;;;;;;;;17.80;99.90;;;;;;7322316;19;9345;-75
2023/09/20 00:41:27;;;;;;;;;;;17.70;99.90;;;;;;7324962;19;9287;-76
2023/09/20 00:43:58;;;;;;;;;;;17.70;99.90;;;;;;7324097;19;9308;-75
2023/09/20 00:46:29;;;;;;;;;;;17.60;99.90;;;;;;7322888;19;10870;-75
2023/09/20 00:48:59;;;;;;;;;;;17.50;99.90;;;;;;7324494;19;10328;-75
2023/09/20 00:51:28;;;;;;;;;;;17.60;99.90;;;;;;7323022;19;9410;-75
2023/09/20 00:54:04;;;;;;;;;;;17.50;99.90;;;;;;7325924;19;9582;-75
2023/09/20 00:56:33;;;;;;;;;;;17.60;99.90;;;;;;7322302;19;10536;-76
2023/09/20 00:59:06;;;;;;;;;;;17.60;99.90;;;;;;7324257;19;10285;-75
2023/09/20 01:01:58;;;;;;;;;;;17.60;99.90;;;;;;7322964;19;9181;-75
2023/09/20 01:04:27;;;;;;;;;;;17.60;99.90;;;;;;7311268;19;10158;-75
2023/09/20 01:06:58;;;;;;;;;;;17.70;99.90;;;;;;7299468;19;9229;-75
2023/09/20 01:09:27;;;;;;;;;;;17.70;99.90;;;;;;7300893;19;11797;-75
2023/09/20 01:11:57;;;;;;;;;;;17.70;99.90;;;;;;7316703;19;9445;-75
2023/09/20 01:14:27;;;;;;;;;;;17.70;99.90;;;;;;7325908;19;11731;-75
2023/09/20 01:16:58;;;;;;;;;;;17.70;99.90;;;;;;7324095;19;9590;-75
2023/09/20 01:19:28;;;;;;;;;;;17.70;99.90;;;;;;7323535;19;10683;-75
2023/09/20 01:22:00;;;;;;;;;;;17.80;99.90;;;;;;7323529;19;9289;-76
2023/09/20 01:24:32;;;;;;;;;;;17.90;99.90;;;;;;7320843;19;9365;-75
2023/09/20 01:27:05;;;;;;;;;;;17.90;99.90;;;;;;7320529;19;9513;-75
2023/09/20 01:29:35;;;;;;;;;;;17.90;99.90;;;;;;7314835;19;9294;-76
2023/09/20 01:32:05;;;;;;;;;;;18.00;99.90;;;;;;7320076;19;9334;-76
2023/09/20 01:34:34;;;;;;;;;;;18.00;99.90;;;;;;7321746;19;9384;-76
2023/09/20 01:37:08;;;;;;;;;;;18.00;99.90;;;;;;7322719;19;9272;-76
2023/09/20 01:39:37;;;;;;;;;;;18.00;99.90;;;;;;7324551;19;9245;-76
2023/09/20 01:42:07;;;;;;;;;;;18.00;99.90;;;;;;7323572;19;9582;-76
2023/09/20 01:44:37;;;;;;;;;;;18.10;99.90;;;;;;7319927;19;9476;-76
2023/09/20 01:47:06;;;;;;;;;;;18.00;99.90;;;;;;7322843;19;9254;-76
2023/09/20 01:49:36;;;;;;;;;;;18.00;99.90;;;;;;7322696;19;11289;-76
2023/09/20 01:52:08;;;;;;;;;;;18.00;99.90;;;;;;7323715;19;9273;-76
2023/09/20 01:54:38;;;;;;;;;;;17.90;99.90;;;;;;7326494;19;9201;-76
2023/09/20 01:57:07;;;;;;;;;;;17.90;99.90;;;;;;7323981;19;9230;-76
2023/09/20 01:59:36;;;;;;;;;;;17.90;99.90;;;;;;7325521;19;9182;-76
2023/09/20 02:02:06;;;;;;;;;;;17.90;99.90;;;;;;7323666;19;9394;-76
2023/09/20 02:04:35;;;;;;;;;;;17.80;99.90;;;;;;7323658;19;10131;-76
2023/09/20 02:07:07;;;;;;;;;;;17.90;99.90;;;;;;7324392;19;9451;-76
2023/09/20 02:09:57;;;;;;;;;;;17.90;99.90;;;;;;7321347;19;9369;-76
2023/09/20 02:12:26;;;;;;;;;;;17.90;99.90;;;;;;7321523;19;9336;-76
2023/09/20 02:14:55;;;;;;;;;;;17.80;99.90;;;;;;7321117;19;9269;-76
2023/09/20 02:17:26;;;;;;;;;;;17.80;99.90;;;;;;7323141;19;9225;-76
2023/09/20 02:19:54;;;;;;;;;;;17.90;99.90;;;;;;7321569;19;9379;-76
2023/09/20 02:22:28;;;;;;;;;;;18.00;99.90;;;;;;7323244;19;9262;-77
2023/09/20 02:24:57;;;;;;;;;;;18.00;99.90;;;;;;7322112;19;9617;-76
2023/09/20 02:27:26;;;;;;;;;;;18.00;99.90;;;;;;7322493;19;9262;-76
2023/09/20 02:30:19;;;;;;;;;;;18.00;99.90;;;;;;7320618;19;9566;-76
2023/09/20 02:32:51;;;;;;;;;;;18.00;99.90;;;;;;7317606;19;8944;-76
2023/09/20 02:35:20;;;;;;;;;;;18.00;99.90;;;;;;7319996;19;9291;-76
2023/09/20 02:37:53;;;;;;;;;;;17.90;99.90;;;;;;7320008;19;9227;-76
2023/09/20 02:40:23;;;;;;;;;;;17.90;99.90;;;;;;7322746;19;9551;-76
2023/09/20 02:42:55;;;;;;;;;;;17.90;99.90;;;;;;7319946;19;9200;-76
2023/09/20 02:45:24;;;;;;;;;;;17.90;99.90;;;;;;7316703;19;9364;-76
2023/09/20 02:47:55;;;;;;;;;;;17.90;99.90;;;;;;7320431;19;9498;-77
2023/09/20 02:50:25;;;;;;;;;;;17.90;99.90;;;;;;7321287;19;9241;-76
2023/09/20 02:52:58;;;;;;;;;;;17.90;99.90;;;;;;7320329;19;9464;-76
2023/09/20 02:55:27;;;;;;;;;;;17.90;99.90;;;;;;7320844;19;9443;-77
2023/09/20 02:57:56;;;;;;;;;;;17.90;99.90;;;;;;7321603;19;9615;-76
2023/09/20 03:00:28;;;;;;;;;;;17.90;99.90;;;;;;7317101;19;9237;-76
2023/09/20 03:03:00;;;;;;;;;;;17.90;99.90;;;;;;7318689;19;10697;-76
2023/09/20 03:05:31;;;;;;;;;;;17.90;99.90;;;;;;7319685;19;9419;-76
2023/09/20 03:08:04;;;;;;;;;;;17.90;99.90;;;;;;7319655;19;9061;-76
2023/09/20 03:10:38;;;;;;;;;;;17.90;99.90;;;;;;7319065;19;9515;-76
2023/09/20 03:13:27;;;;;;;;;;;17.90;99.90;;;;;;7318513;19;9585;-76
2023/09/20 03:15:56;;;;;;;;;;;17.90;99.90;;;;;;7318462;19;9137;-76
2023/09/20 03:18:25;;;;;;;;;;;18.00;99.90;;;;;;7319391;19;10214;-76
2023/09/20 03:20:54;;;;;;;;;;;18.00;99.90;;;;;;7320578;19;9436;-76
2023/09/20 03:23:27;;;;;;;;;;;18.00;99.90;;;;;;7320332;19;9160;-76
2023/09/20 03:25:56;;;;;;;;;;;18.00;99.90;;;;;;7319765;19;10139;-76
2023/09/20 03:28:25;;;;;;;;;;;18.00;99.90;;;;;;7320232;19;9261;-75
2023/09/20 03:30:55;;;;;;;;;;;18.00;99.90;;;;;;7319437;19;10139;-76
2023/09/20 03:33:44;;;;;;;;;;;18.00;99.90;;;;;;7313469;19;9419;-76
2023/09/20 03:36:15;;;;;;;;;;;18.00;99.90;;;;;;7319002;19;11189;-76
2023/09/20 03:38:47;;;;;;;;;;;18.00;99.90;;;;;;7319247;19;9616;-76
2023/09/20 03:41:16;;;;;;;;;;;17.90;99.90;;;;;;7319682;19;9307;-76
2023/09/20 03:43:45;;;;;;;;;;;18.00;99.90;;;;;;7318391;19;9293;-76
2023/09/20 03:46:14;;;;;;;;;;;18.00;99.90;;;;;;7318683;19;9125;-76
2023/09/20 03:48:44;;;;;;;;;;;18.10;99.90;;;;;;7318925;19;9584;-76
2023/09/20 03:51:16;;;;;;;;;;;18.10;99.90;;;;;;7317505;19;9249;-76
2023/09/20 03:53:49;;;;;;;;;;;18.10;99.90;;;;;;7319486;19;9186;-76
2023/09/20 03:56:18;;;;;;;;;;;18.10;99.90;;;;;;7316029;19;9548;-76
2023/09/20 03:58:47;;;;;;;;;;;18.10;99.90;;;;;;7318621;19;9242;-76
2023/09/20 04:01:16;;;;;;;;;;;18.00;99.90;;;;;;7319828;19;9294;-75
2023/09/20 04:03:45;;;;;;;;;;;18.00;99.90;;;;;;7316578;19;9269;-76
2023/09/20 04:06:14;;;;;;;;;;;18.00;99.90;;;;;;7324037;19;9444;-76
2023/09/20 04:08:44;;;;;;;;;;;17.90;99.90;;;;;;7322880;19;9494;-76
2023/09/20 04:11:15;;;;;;;;;;;17.90;99.90;;;;;;7325797;19;9238;-75
2023/09/20 04:13:44;;;;;;;;;;;17.90;99.90;;;;;;7325344;19;9245;-76
2023/09/20 04:16:14;;;;;;;;;;;18.00;99.90;;;;;;7325525;19;9529;-75
2023/09/20 04:18:44;;;;;;;;;;;18.00;99.90;;;;;;7323429;19;9254;-76
2023/09/20 04:21:13;;;;;;;;;;;18.00;99.90;;;;;;7324008;19;9244;-76
2023/09/20 04:23:43;;;;;;;;;;;18.00;99.90;;;;;;7325391;19;9257;-76
2023/09/20 04:26:15;;;;;;;;;;;17.90;99.90;;;;;;7323729;19;9292;-77
2023/09/20 04:28:44;;;;;;;;;;;17.90;99.90;;;;;;7327295;19;9282;-76
2023/09/20 04:31:13;;;;;;;;;;;18.00;99.90;;;;;;7323095;19;9558;-76
2023/09/20 04:33:42;;;;;;;;;;;18.00;99.90;;;;;;7321180;19;9229;-77
2023/09/20 04:36:12;;;;;;;;;;;18.00;99.90;;;;;;7321597;19;9318;-76
2023/09/20 04:39:01;;;;;;;;;;;18.10;99.90;;;;;;7321529;19;9310;-75
2023/09/20 04:41:34;;;;;;;;;;;18.10;99.90;;;;;;7323473;19;9182;-76
2023/09/20 04:44:04;;;;;;;;;;;18.10;99.90;;;;;;7321968;19;9261;-75
2023/09/20 04:46:35;;;;;;;;;;;18.00;99.90;;;;;;7325927;19;9424;-75
2023/09/20 04:49:05;;;;;;;;;;;18.00;99.90;;;;;;7323860;19;11301;-75
2023/09/20 04:51:34;;;;;;;;;;;17.90;99.90;;;;;;7323279;19;10324;-75
2023/09/20 04:54:04;;;;;;;;;;;17.80;99.90;;;;;;7323166;19;9210;-75
2023/09/20 04:56:36;;;;;;;;;;;17.70;99.90;;;;;;7323983;19;10487;-75
2023/09/20 04:59:07;;;;;;;;;;;17.70;99.90;;;;;;7322652;19;8997;-75
2023/09/20 05:01:37;;;;;;;;;;;17.70;99.90;;;;;;7322396;19;9820;-75
2023/09/20 05:04:07;;;;;;;;;;;17.60;99.90;;;;;;7320025;19;9246;-75
2023/09/20 05:06:35;;;;;;;;;;;17.60;99.90;;;;;;7323187;19;9436;-75
2023/09/20 05:09:05;;;;;;;;;;;17.50;99.90;;;;;;7324990;19;10722;-75
2023/09/20 05:11:36;;;;;;;;;;;17.50;99.90;;;;;;7320126;19;9299;-75
2023/09/20 05:14:05;;;;;;;;;;;17.40;99.90;;;;;;7316855;19;9540;-75
2023/09/20 05:16:54;;;;;;;;;;;17.40;99.90;;;;;;7322407;19;9452;-75
2023/09/20 05:19:24;;;;;;;;;;;17.30;99.90;;;;;;7323078;19;9233;-75
2023/09/20 05:21:54;;;;;;;;;;;17.30;99.90;;;;;;7321699;19;9418;-75
2023/09/20 05:24:25;;;;;;;;;;;17.30;99.90;;;;;;7324092;19;9441;-75
2023/09/20 05:26:57;;;;;;;;;;;17.30;99.90;;;;;;7324336;19;8944;-75
2023/09/20 05:29:26;;;;;;;;;;;17.30;99.90;;;;;;7321200;19;10150;-75
2023/09/20 05:31:55;;;;;;;;;;;17.30;99.90;;;;;;7319667;19;9507;-75
2023/09/20 05:34:24;;;;;;;;;;;17.20;99.90;;;;;;7316743;19;9348;-75
2023/09/20 05:36:53;;;;;;;;;;;17.20;99.90;;;;;;7319153;19;9510;-75
2023/09/20 05:39:22;;;;;;;;;;;17.20;99.90;;;;;;7318058;19;9478;-75
2023/09/20 05:41:51;;;;;;;;;;;17.20;99.90;;;;;;7323695;19;9234;-75
2023/09/20 05:44:43;;;;;;;;;;;17.20;99.90;;;;;;7321515;19;9555;-81
2023/09/20 05:47:12;;;;;;;;;;;17.20;99.90;;;;;;7319689;19;9536;-75
2023/09/20 05:49:41;;;;;;;;;;;17.00;99.90;;;;;;7320197;19;9077;-76
2023/09/20 05:52:10;;;;;;;;;;;17.10;99.90;;;;;;7321266;19;9475;-84
2023/09/20 05:54:59;;;;;;;;;;;17.20;99.90;;;;;;7322275;19;9310;-73
2023/09/20 05:57:29;;;;;;;;;;;17.00;99.90;;;;;;7319089;19;9304;-72
2023/09/20 06:00:11;;;;;;;;;;;17.00;99.90;;;;;;7322513;19;10343;-73
2023/09/20 06:02:41;;;;;;;;;;;17.00;99.90;;;;;;7316262;19;9256;-71
2023/09/20 06:05:12;;;;;;;;;;;17.00;99.90;;;;;;7314730;19;9262;-69
2023/09/20 06:07:44;;;;;;;;;;;17.00;99.90;;;;;;7321224;19;9356;-69
2023/09/20 06:10:15;;;;;;;;;;;17.00;99.90;;;;;;7322952;19;9603;-70
2023/09/20 06:12:44;;;;;;;;;;;16.90;99.90;;;;;;7322204;19;9248;-69
2023/09/20 06:15:16;;;;;;;;;;;16.90;99.90;;;;;;7322192;19;9001;-69
2023/09/20 06:17:47;;;;;;;;;;;17.00;99.90;;;;;;7322494;19;9384;-69
2023/09/20 06:20:19;;;;;;;;;;;17.10;99.90;;;;;;7317229;19;9344;-74
2023/09/20 06:22:49;;;;;;;;;;;17.10;99.90;;;;;;7318904;19;9416;-74
2023/09/20 06:25:20;;;;;;;;;;;17.20;99.90;;;;;;7321185;19;9282;-74
2023/09/20 06:27:50;;;;;;;;;;;17.20;99.90;;;;;;7317978;19;9408;-74
2023/09/20 06:30:24;;;;;;;;;;;17.30;99.90;;;;;;7320927;19;9515;-74
2023/09/20 06:32:54;;;;;;;;;;;17.20;99.90;;;;;;7316455;19;9574;-74
2023/09/20 06:35:23;;;;;;;;;;;17.20;99.90;;;;;;7322392;19;9287;-74
2023/09/20 06:37:52;;;;;;;;;;;17.30;99.90;;;;;;7321479;19;8944;-74
2023/09/20 06:40:26;;;;;;;;;;;17.30;99.90;;;;;;7320742;19;9242;-74
2023/09/20 06:42:55;;;;;;;;;;;17.40;99.90;;;;;;7321701;19;10721;-74
2023/09/20 06:45:27;;;;;;;;;;;17.40;99.90;;;;;;7322258;19;10440;-74
2023/09/20 06:47:57;;;;;;;;;;;17.40;99.90;;;;;;7321916;19;9126;-74
2023/09/20 06:50:26;;;;;;;;;;;17.40;99.90;;;;;;7321558;19;9282;-74
2023/09/20 06:52:56;;;;;;;;;;;17.40;99.90;;;;;;7319693;19;9238;-74
2023/09/20 06:55:25;;;;;;;;;;;17.50;99.90;;;;;;7318550;19;9344;-74
2023/09/20 06:57:54;;;;;;;;;;;17.50;99.90;;;;;;7320147;19;10879;-74
2023/09/20 07:00:46;;;;;;;;;;;17.50;99.90;;;;;;7318020;19;9331;-74
2023/09/20 07:03:15;;;;;;;;;;;17.50;99.90;;;;;;7317623;19;8945;-74
2023/09/20 07:05:44;;;;;;;;;;;17.50;99.90;;;;;;7321620;19;9225;-74
2023/09/20 07:08:14;;;;;;;;;;;17.50;99.90;;;;;;7320497;19;9585;-74
2023/09/20 07:10:45;;;;;;;;;;;17.60;99.90;;;;;;7320165;19;10196;-74
2023/09/20 07:13:16;;;;;;;;;;;17.60;99.90;;;;;;7320714;19;9516;-74
2023/09/20 07:15:47;;;;;;;;;;;17.70;99.90;;;;;;7320445;19;9265;-73
2023/09/20 07:18:17;;;;;;;;;;;17.80;99.90;;;;;;7319318;19;9519;-74
2023/09/20 07:20:48;;;;;;;;;;;18.00;99.90;;;;;;7318568;19;8944;-74
2023/09/20 07:23:18;;;;;;;;;;;18.10;99.90;;;;;;7319816;19;9271;-73
2023/09/20 07:25:49;;;;;;;;;;;18.10;99.90;;;;;;7321216;19;9461;-74
2023/09/20 07:28:42;;;;;;;;;;;18.10;99.90;;;;;;7318312;19;10525;-74
2023/09/20 07:31:19;;;;;;;;;;;18.20;99.90;;;;;;7318990;19;9507;-73
2023/09/20 07:33:48;;;;;;;;;;;18.20;99.90;;;;;;7313613;19;9319;-74
2023/09/20 07:36:17;;;;;;;;;;;18.20;99.90;;;;;;7318617;19;9297;-74
2023/09/20 07:38:46;;;;;;;;;;;18.20;99.90;;;;;;7320415;19;9315;-73
2023/09/20 07:41:17;;;;;;;;;;;18.30;99.90;;;;;;7319098;19;9224;-74
2023/09/20 07:43:47;;;;;;;;;;;18.20;99.90;;;;;;7319571;19;9486;-74
2023/09/20 07:46:20;;;;;;;;;;;18.10;99.90;;;;;;7318941;19;9281;-74
2023/09/20 07:48:50;;;;;;;;;;;18.20;99.90;;;;;;7318014;19;10282;-74
2023/09/20 07:51:24;;;;;;;;;;;18.40;99.90;;;;;;7319223;19;9210;-74
2023/09/20 07:53:55;;;;;;;;;;;18.50;99.90;;;;;;7319586;19;9159;-74
2023/09/20 07:56:22;;;;;;;;;;;18.70;99.90;;;;;;7319139;19;9799;-74
2023/09/20 07:58:53;;;;;;;;;;;18.80;99.90;;;;;;7317452;19;9533;-74
2023/09/20 08:01:29;;;;;;;;;;;18.90;99.90;;;;;;7319496;19;9513;-74
2023/09/20 08:03:59;;;;;;;;;;;18.90;99.90;;;;;;7314980;19;9426;-74
2023/09/20 08:06:33;;;;;;;;;;;18.90;99.90;;;;;;7319619;19;9191;-74
2023/09/20 08:09:03;;;;;;;;;;;18.90;99.90;;;;;;7314710;19;9234;-74
2023/09/20 08:11:32;;;;;;;;;;;19.00;99.90;;;;;;7317709;19;9251;-74
2023/09/20 08:14:21;;;;;;;;;;;19.00;99.90;;;;;;7318178;19;9461;-74
2023/09/20 08:19:36;;;;;;;;;;;19.00;99.90;;;;;;7318245;19;9241;-74
2023/09/20 08:22:05;;;;;;;;;;;18.90;99.90;;;;;;7317488;19;9250;-74
2023/09/20 09:00:24;;;;;;;;;;;19.30;99.90;;;;;;7323308;19;9444;-75
2023/09/20 09:02:56;;;;;;;;;;;19.40;99.90;;;;;;7321104;19;9459;-74
2023/09/20 09:05:30;;;;;;;;;;;19.50;99.90;;;;;;7324024;19;9313;-74
2023/09/20 09:08:00;;;;;;;;;;;19.60;99.90;;;;;;7324601;19;9627;-74
2023/09/20 09:10:31;;;;;;;;;;;19.70;99.90;;;;;;7321848;19;9312;-75
2023/09/20 09:13:00;;;;;;;;;;;19.80;99.90;;;;;;7322659;19;9162;-74
2023/09/20 09:15:30;;;;;;;;;;;19.90;99.90;;;;;;7324173;19;9375;-74
2023/09/20 09:18:00;;;;;;;;;;;19.90;99.90;;;;;;7324714;19;9213;-74
2023/09/20 09:20:36;;;;;;;;;;;20.00;99.90;;;;;;7321772;19;8944;-74
2023/09/20 09:23:05;;;;;;;;;;;19.80;99.90;;;;;;7323540;19;9295;-74
2023/09/20 09:25:35;;;;;;;;;;;19.90;99.90;;;;;;7323271;19;9179;-74
2023/09/20 09:28:05;;;;;;;;;;;19.90;99.90;;;;;;7324053;19;9155;-74
2023/09/20 09:30:55;;;;;;;;;;;19.80;99.90;;;;;;7322487;19;9173;-74
2023/09/20 09:33:27;;;;;;;;;;;19.80;99.90;;;;;;7316231;19;9140;-74
2023/09/20 09:35:58;;;;;;;;;;;19.90;99.90;;;;;;7323147;19;9118;-74
2023/09/20 09:38:27;;;;;;;;;;;19.90;99.90;;;;;;7324345;19;9212;-74
2023/09/20 09:40:57;;;;;;;;;;;19.80;99.90;;;;;;7324622;19;11342;-74
2023/09/20 09:43:28;;;;;;;;;;;19.90;99.90;;;;;;7320731;19;10440;-74
2023/09/20 09:46:03;;;;;;;;;;;19.80;99.90;;;;;;7323698;19;9261;-74
2023/09/20 09:48:35;;;;;;;;;;;19.70;99.90;;;;;;7324337;19;9568;-74
2023/09/20 09:51:08;;;;;;;;;;;19.80;99.90;;;;;;7323808;19;9461;-74
2023/09/20 09:53:41;;;;;;;;;;;19.70;99.90;;;;;;7318849;19;9392;-74
2023/09/20 09:56:11;;;;;;;;;;;19.80;99.90;;;;;;7321972;19;9135;-74
2023/09/20 09:59:00;;;;;;;;;;;19.80;99.90;;;;;;7311938;19;11361;-74
2023/09/20 10:01:30;;;;;;;;;;;19.90;99.90;;;;;;7317427;19;9253;-74
2023/09/20 10:04:07;;;;;;;;;;;20.00;99.90;;;;;;7318706;19;9620;-74
2023/09/20 10:06:50;;;;;;;;;;;19.90;99.90;;;;;;7322061;19;9522;-74
2023/09/20 10:09:24;;;;;;;;;;;19.90;99.90;;;;;;7320645;19;9467;-75
2023/09/20 10:11:54;;;;;;;;;;;19.90;99.90;;;;;;7321933;19;9738;-75
2023/09/20 10:14:24;;;;;;;;;;;19.90;99.90;;;;;;7323181;19;9227;-79
2023/09/20 10:16:53;;;;;;;;;;;20.00;99.90;;;;;;7322275;19;9518;-78
2023/09/20 10:19:23;;;;;;;;;;;20.00;99.90;;;;;;7321645;19;9229;-78
2023/09/20 10:22:09;;;;;;;;;;;20.10;99.90;;;;;;7318966;19;9217;-78
2023/09/20 10:24:50;;;;;;;;;;;20.10;99.90;;;;;;7320787;19;9202;-78
2023/09/20 10:27:22;;;;;;;;;;;20.20;99.90;;;;;;7319502;19;9261;-78
2023/09/20 10:30:05;;;;;;;;;;;20.30;99.90;;;;;;7318481;19;10476;-78
2023/09/20 10:32:36;;;;;;;;;;;20.30;99.90;;;;;;7319758;19;9241;-78
2023/09/20 10:35:27;;;;;;;;;;;20.50;99.90;;;;;;7319149;19;9602;-78
2023/09/20 10:38:07;;;;;;;;;;;20.40;99.90;;;;;;7318120;19;9207;-78
2023/09/20 10:40:56;;;;;;;;;;;20.50;99.90;;;;;;7322113;19;10709;-78
2023/09/20 10:43:46;;;;;;;;;;;20.50;99.90;;;;;;7321256;19;9407;-79
2023/09/20 10:46:17;;;;;;;;;;;20.50;99.90;;;;;;7319155;19;9221;-78
2023/09/20 10:48:51;;;;;;;;;;;20.50;99.90;;;;;;7322188;19;9316;-78
2023/09/20 10:51:54;;;;;;;;;;;20.50;99.90;;;;;;7320904;19;9211;-78
2023/09/20 10:54:34;;;;;;;;;;;20.60;99.90;;;;;;7322443;19;9171;-78
2023/09/20 10:57:09;;;;;;;;;;;20.60;99.90;;;;;;7317244;19;9265;-78
2023/09/20 10:59:40;;;;;;;;;;;20.60;99.90;;;;;;7320796;19;8995;-78
2023/09/20 11:02:12;;;;;;;;;;;20.70;99.90;;;;;;7317547;19;9114;-77
2023/09/20 11:04:46;;;;;;;;;;;20.70;99.90;;;;;;7320161;19;10648;-79
2023/09/20 11:07:15;;;;;;;;;;;20.60;99.90;;;;;;7319987;19;9272;-80
2023/09/20 11:09:51;;;;;;;;;;;20.70;99.90;;;;;;7321919;19;9171;-80
2023/09/20 11:12:20;;;;;;;;;;;20.70;99.90;;;;;;7318562;19;9820;-79
2023/09/20 11:14:50;;;;;;;;;;;20.70;99.90;;;;;;7318182;19;9504;-79
2023/09/20 11:17:19;;;;;;;;;;;20.70;99.90;;;;;;7322260;19;9470;-80
2023/09/20 11:19:49;;;;;;;;;;;20.70;99.90;;;;;;7321558;19;9571;-80
2023/09/20 11:22:20;;;;;;;;;;;20.70;99.90;;;;;;7320608;19;9206;-79
2023/09/20 11:24:52;;;;;;;;;;;20.70;99.90;;;;;;7318106;19;10921;-78
2023/09/20 11:27:21;;;;;;;;;;;20.80;99.90;;;;;;7314538;19;9324;-77
2023/09/20 11:29:52;;;;;;;;;;;20.80;99.90;;;;;;7316560;19;9166;-77
2023/09/20 11:32:22;;;;;;;;;;;20.70;99.90;;;;;;7301821;19;10599;-77
2023/09/20 11:34:53;;;;;;;;;;;20.70;99.90;;;;;;7314389;19;9537;-76
2023/09/20 11:37:24;;;;;;;;;;;20.60;99.90;;;;;;7316209;19;9232;-77
2023/09/20 11:39:56;;;;;;;;;;;20.50;99.90;;;;;;7317414;19;9249;-77
2023/09/20 11:42:28;;;;;;;;;;;20.50;99.90;;;;;;7320598;19;9512;-77
2023/09/20 11:44:58;;;;;;;;;;;20.40;99.90;;;;;;7320431;19;9783;-76
2023/09/20 11:47:27;;;;;;;;;;;20.50;99.90;;;;;;7319162;19;10263;-76
2023/09/20 11:49:58;;;;;;;;;;;20.50;99.90;;;;;;7316674;19;9438;-76
2023/09/20 11:52:27;;;;;;;;;;;20.50;99.90;;;;;;7318542;19;9511;-77
2023/09/20 11:55:04;;;;;;;;;;;20.60;99.90;;;;;;7320457;19;9184;-77
2023/09/20 11:57:35;;;;;;;;;;;20.60;99.90;;;;;;7313437;19;9124;-77
2023/09/20 12:00:05;;;;;;;;;;;20.60;99.90;;;;;;7313472;19;10974;-77
2023/09/20 12:02:35;;;;;;;;;;;20.70;99.90;;;;;;7315167;19;9268;-77
2023/09/20 12:05:05;;;;;;;;;;;20.70;99.90;;;;;;7313916;19;9437;-77
2023/09/20 12:07:34;;;;;;;;;;;20.60;99.90;;;;;;7317211;19;9283;-76
2023/09/20 12:10:06;;;;;;;;;;;20.70;99.90;;;;;;7317225;19;9253;-77
2023/09/20 12:12:36;;;;;;;;;;;20.70;99.90;;;;;;7319214;19;8944;-76
2023/09/20 12:15:06;;;;;;;;;;;20.80;99.90;;;;;;7318746;19;9268;-77
2023/09/20 12:17:35;;;;;;;;;;;20.80;99.90;;;;;;7316993;19;11057;-77
2023/09/20 12:20:06;;;;;;;;;;;20.90;99.90;;;;;;7315668;19;9608;-77
2023/09/20 12:22:35;;;;;;;;;;;20.90;99.90;;;;;;7319157;19;10349;-77
2023/09/20 12:25:08;;;;;;;;;;;20.90;99.90;;;;;;7322316;19;9312;-77
2023/09/20 12:27:37;;;;;;;;;;;20.90;99.90;;;;;;7325539;19;8944;-77
2023/09/20 12:30:08;;;;;;;;;;;21.00;99.90;;;;;;7323316;19;9450;-76
2023/09/20 12:32:39;;;;;;;;;;;20.90;99.90;;;;;;7322351;19;9290;-76
2023/09/20 12:35:09;;;;;;;;;;;21.10;99.90;;;;;;7321035;19;9315;-77
2023/09/20 12:37:38;;;;;;;;;;;21.30;99.90;;;;;;7319988;19;9273;-77
2023/09/20 12:40:12;;;;;;;;;;;21.40;99.90;;;;;;7324203;19;9537;-77
2023/09/20 12:42:43;;;;;;;;;;;21.60;99.90;;;;;;7325479;19;9251;-76
2023/09/20 12:45:14;;;;;;;;;;;21.70;99.90;;;;;;7323629;19;9191;-77
2023/09/20 12:47:44;;;;;;;;;;;21.70;99.90;;;;;;7321299;19;9283;-77
2023/09/20 12:50:14;;;;;;;;;;;21.80;99.90;;;;;;7322708;19;9427;-77
2023/09/20 12:52:44;;;;;;;;;;;21.70;99.90;;;;;;7325622;19;9510;-76
2023/09/20 12:55:17;;;;;;;;;;;21.70;99.90;;;;;;7322706;19;9539;-76
2023/09/20 12:57:48;;;;;;;;;;;21.70;99.90;;;;;;7325109;19;9472;-77
2023/09/20 13:00:19;;;;;;;;;;;21.70;99.90;;;;;;7327878;19;9366;-77
2023/09/20 13:02:48;;;;;;;;;;;21.80;99.90;;;;;;7322573;19;9187;-76
2023/09/20 13:05:17;;;;;;;;;;;21.90;99.90;;;;;;7318828;19;9489;-77
2023/09/20 13:07:47;;;;;;;;;;;22.00;99.90;;;;;;7323803;19;9523;-76
2023/09/20 13:10:19;;;;;;;;;;;22.10;99.90;;;;;;7323062;19;9463;-77
2023/09/20 13:12:48;;;;;;;;;;;22.20;99.90;;;;;;7324053;19;9475;-77
2023/09/20 13:15:19;;;;;;;;;;;22.40;99.90;;;;;;7321583;19;9415;-77
2023/09/20 13:17:50;;;;;;;;;;;22.50;99.90;;;;;;7323153;19;11801;-76
2023/09/20 13:20:20;;;;;;;;;;;22.70;99.90;;;;;;7322105;19;9234;-77
2023/09/20 13:22:52;;;;;;;;;;;22.90;99.90;;;;;;7321123;19;9401;-77
2023/09/20 13:25:27;;;;;;;;;;;23.00;99.90;;;;;;7323907;19;9337;-77
2023/09/20 13:27:56;;;;;;;;;;;22.90;99.90;;;;;;7320265;19;9259;-77
2023/09/20 13:30:26;;;;;;;;;;;22.80;99.90;;;;;;7324675;19;10100;-77
2023/09/20 13:32:57;;;;;;;;;;;22.70;99.90;;;;;;7318587;19;9241;-77
2023/09/20 13:35:26;;;;;;;;;;;22.60;99.90;;;;;;7322227;19;8945;-77
2023/09/20 13:37:54;;;;;;;;;;;22.60;99.90;;;;;;7321501;19;9192;-77
2023/09/20 13:40:26;;;;;;;;;;;22.60;99.90;;;;;;7324799;19;9370;-77
2023/09/20 13:42:55;;;;;;;;;;;22.60;99.90;;;;;;7323943;19;9682;-77
2023/09/20 13:45:26;;;;;;;;;;;22.60;99.90;;;;;;7323479;19;9478;-77
2023/09/20 13:47:56;;;;;;;;;;;22.50;99.90;;;;;;7321991;19;10336;-77
2023/09/20 13:50:26;;;;;;;;;;;22.50;99.90;;;;;;7322595;19;9206;-77
2023/09/20 13:52:56;;;;;;;;;;;22.40;99.90;;;;;;7322131;19;9261;-76
2023/09/20 13:55:29;;;;;;;;;;;22.40;99.90;;;;;;7322857;19;9543;-77
2023/09/20 13:57:57;;;;;;;;;;;22.30;99.90;;;;;;7323214;19;9218;-77
2023/09/20 14:00:28;;;;;;;;;;;22.30;99.90;;;;;;7321958;19;9261;-77
2023/09/20 14:02:57;;;;;;;;;;;22.30;99.90;;;;;;7320984;19;9076;-77
2023/09/20 14:05:46;;;;;;;;;;;22.30;99.90;;;;;;7320967;19;9513;-77
2023/09/20 14:08:15;;;;;;;;;;;22.30;99.90;;;;;;7321952;19;9231;-77
2023/09/20 14:10:47;;;;;;;;;;;22.40;99.90;;;;;;7321964;19;9221;-77
2023/09/20 14:13:16;;;;;;;;;;;22.50;99.90;;;;;;7319930;19;9513;-77
2023/09/20 14:15:46;;;;;;;;;;;22.50;99.90;;;;;;7323332;19;9195;-78
2023/09/20 14:18:16;;;;;;;;;;;22.50;99.90;;;;;;7320536;19;8980;-77
2023/09/20 14:20:47;;;;;;;;;;;22.50;99.90;;;;;;7318688;19;9222;-77
2023/09/20 14:23:16;;;;;;;;;;;22.50;99.90;;;;;;7321507;19;9332;-77
2023/09/20 14:25:49;;;;;;;;;;;22.50;99.90;;;;;;7321793;19;9190;-76
2023/09/20 14:28:18;;;;;;;;;;;22.50;99.90;;;;;;7323137;19;9599;-77
2023/09/20 14:30:47;;;;;;;;;;;22.60;99.90;;;;;;7323078;19;10349;-77
2023/09/20 14:33:18;;;;;;;;;;;22.60;99.90;;;;;;7318259;19;9199;-77
2023/09/20 14:35:47;;;;;;;;;;;22.50;99.90;;;;;;7320232;19;9570;-77
2023/09/20 14:38:16;;;;;;;;;;;22.50;99.90;;;;;;7320381;19;9854;-77
2023/09/20 14:40:48;;;;;;;;;;;22.40;99.90;;;;;;7322820;19;9206;-77
2023/09/20 14:43:17;;;;;;;;;;;22.30;99.90;;;;;;7322233;19;9202;-77
2023/09/20 14:45:46;;;;;;;;;;;22.30;99.90;;;;;;7321927;19;9458;-77
2023/09/20 14:48:17;;;;;;;;;;;22.30;99.90;;;;;;7318056;19;9180;-76
2023/09/20 14:51:08;;;;;;;;;;;22.30;99.90;;;;;;7319550;19;10462;-77
2023/09/20 14:53:37;;;;;;;;;;;22.30;99.90;;;;;;7321275;19;9202;-77
2023/09/20 14:56:11;;;;;;;;;;;22.30;99.90;;;;;;7321493;19;9291;-77
2023/09/20 14:58:40;;;;;;;;;;;22.20;99.90;;;;;;7323893;19;9419;-76
2023/09/20 15:01:17;;;;;;;;;;;22.30;99.90;;;;;;7322703;19;8944;-77
2023/09/20 15:03:46;;;;;;;;;;;22.20;99.90;;;;;;7318248;19;9459;-77
2023/09/20 15:06:19;;;;;;;;;;;22.20;99.90;;;;;;7322137;19;9261;-77
2023/09/20 15:08:49;;;;;;;;;;;22.10;99.90;;;;;;7321446;19;9322;-77
2023/09/20 15:11:20;;;;;;;;;;;22.10;99.90;;;;;;7319220;19;9724;-77
2023/09/20 15:14:10;;;;;;;;;;;22.10;99.90;;;;;;7319685;19;9167;-77
2023/09/20 15:16:40;;;;;;;;;;;22.10;99.90;;;;;;7321006;19;9238;-77
2023/09/20 15:19:09;;;;;;;;;;;22.10;99.70;;;;;;7322738;19;9335;-76
2023/09/20 15:21:39;;;;;;;;;;;22.10;99.90;;;;;;7318976;19;10205;-77
2023/09/20 15:24:11;;;;;;;;;;;22.20;99.90;;;;;;7321967;19;9399;-77
2023/09/20 15:26:43;;;;;;;;;;;22.20;99.90;;;;;;7321325;19;9153;-77
2023/09/20 15:29:17;;;;;;;;;;;22.20;99.70;;;;;;7321061;19;9135;-77
2023/09/20 15:31:46;;;;;;;;;;;22.20;99.80;;;;;;7317621;19;9495;-77
2023/09/20 15:34:18;;;;;;;;;;;22.20;99.90;;;;;;7313591;19;9821;-77